Terminal Aerodrome Forecast
Issued by NWS

Home | Current Version | Previous Version | Text Only | Print | Product List | Glossary On
Versions: 1 2 3 4 5 6 7 8 9 10 11 12 13 14 15 16 17
000
FTUS43 KDDC 180539
TAFHYS
TAF
KHYS 180539Z 1806/1906 35019G27KT P6SM VCSH BKN120
     FM181000 34025G33KT P6SM BKN020
     FM181300 34023G31KT P6SM BKN035
     FM181400 33023G31KT P6SM SCT100
     FM182300 32014KT P6SM SKC
     FM190400 29004KT P6SM SKC=

USA.gov is the U.S. government's official web portal to all federal, state and local government web resources and services.